createdAt,value
2023-02-19T00:02:24.282Z,99.90
2023-02-19T00:04:51.196Z,99.90
2023-02-19T00:07:18.400Z,99.90
2023-02-19T00:09:45.320Z,99.90
2023-02-19T00:12:12.227Z,99.90
2023-02-19T00:14:39.601Z,99.90
2023-02-19T00:17:09.462Z,99.90
2023-02-19T00:19:36.358Z,99.90
2023-02-19T00:22:03.375Z,99.90
2023-02-19T00:24:31.168Z,99.90
2023-02-19T00:26:58.028Z,99.90
2023-02-19T00:29:25.046Z,99.90
2023-02-19T00:31:52.181Z,99.90
2023-02-19T00:34:19.213Z,99.90
2023-02-19T00:36:46.181Z,99.90
2023-02-19T00:39:18.702Z,99.90
2023-02-19T00:41:46.652Z,99.90
2023-02-19T00:44:17.284Z,99.90
2023-02-19T00:46:50.225Z,99.90
2023-02-19T00:49:23.763Z,99.90
2023-02-19T00:51:53.304Z,99.90
2023-02-19T00:54:23.306Z,99.90
2023-02-19T00:56:51.471Z,99.90
2023-02-19T00:59:18.531Z,99.90
2023-02-19T01:01:45.732Z,99.90
2023-02-19T01:04:13.390Z,99.90
2023-02-19T01:06:42.867Z,99.90
2023-02-19T01:09:10.527Z,99.90
2023-02-19T01:11:37.646Z,99.90
2023-02-19T01:14:04.918Z,99.90
2023-02-19T01:16:32.585Z,99.90
2023-02-19T01:19:03.609Z,99.90
2023-02-19T01:21:31.706Z,99.90
2023-02-19T01:23:59.693Z,99.90
2023-02-19T01:26:32.241Z,99.90
2023-02-19T01:29:02.870Z,99.90
2023-02-19T01:31:31.840Z,99.90
2023-02-19T01:34:04.676Z,99.90
2023-02-19T01:36:34.664Z,99.90
2023-02-19T01:39:05.573Z,99.90
2023-02-19T01:41:39.754Z,99.90
2023-02-19T01:44:29.805Z,99.90
2023-02-19T01:46:58.836Z,99.90
2023-02-19T01:49:38.823Z,99.90
2023-02-19T01:52:33.721Z,99.90
2023-02-19T01:55:08.040Z,99.90
2023-02-19T01:57:45.237Z,99.90
2023-02-19T02:00:19.755Z,99.90
2023-02-19T02:03:03.344Z,99.90
2023-02-19T02:05:46.762Z,99.90
2023-02-19T02:08:37.278Z,99.90
2023-02-19T02:11:05.119Z,99.90
2023-02-19T02:13:36.373Z,99.90
2023-02-19T02:16:24.371Z,99.90
2023-02-19T02:19:41.341Z,99.90
2023-02-19T02:22:43.250Z,99.90
2023-02-19T02:25:59.524Z,99.90
2023-02-19T02:29:12.644Z,99.90
2023-02-19T02:32:06.214Z,99.90
2023-02-19T02:34:54.237Z,99.90
2023-02-19T02:37:27.944Z,99.90
2023-02-19T02:39:58.842Z,99.90
2023-02-19T02:42:28.944Z,99.90
2023-02-19T02:45:17.625Z,99.90
2023-02-19T02:47:58.419Z,99.90
2023-02-19T02:50:42.344Z,99.90
2023-02-19T02:53:44.244Z,99.90
2023-02-19T02:56:15.579Z,99.90
2023-02-19T02:58:46.790Z,99.90
2023-02-19T03:01:57.021Z,99.90
2023-02-19T03:04:37.879Z,99.90
2023-02-19T03:07:11.117Z,99.90
2023-02-19T03:09:44.364Z,99.90
2023-02-19T03:12:38.159Z,99.90
2023-02-19T03:15:33.814Z,99.90
2023-02-19T03:18:29.428Z,99.90
2023-02-19T03:20:59.224Z,99.90
2023-02-19T03:23:51.686Z,99.90
2023-02-19T03:26:21.756Z,99.90
2023-02-19T03:29:12.346Z,99.90
2023-02-19T03:31:45.104Z,99.90
2023-02-19T03:34:26.254Z,99.90
2023-02-19T03:37:25.370Z,99.90
2023-02-19T03:39:57.980Z,99.90
2023-02-19T03:43:01.945Z,99.90
2023-02-19T03:46:03.974Z,99.90
2023-02-19T03:48:38.289Z,99.90
2023-02-19T03:51:38.180Z,99.90
2023-02-19T03:54:16.557Z,99.90
2023-02-19T03:56:58.716Z,99.90
2023-02-19T03:59:55.043Z,99.90
2023-02-19T04:02:38.171Z,99.90
2023-02-19T04:05:22.431Z,99.90
2023-02-19T04:08:08.494Z,99.90
2023-02-19T04:10:40.148Z,99.90
2023-02-19T04:13:22.378Z,99.90
2023-02-19T04:16:00.400Z,99.90
2023-02-19T04:18:36.952Z,99.90
2023-02-19T04:21:08.140Z,99.90
2023-02-19T04:23:44.762Z,99.90
2023-02-19T04:26:16.544Z,99.90
2023-02-19T04:28:44.346Z,99.90
2023-02-19T04:31:12.367Z,99.90
2023-02-19T04:33:39.649Z,99.90
2023-02-19T04:36:10.870Z,99.90
2023-02-19T04:38:37.944Z,99.90
2023-02-19T04:41:05.279Z,99.90
2023-02-19T04:43:34.381Z,99.90
2023-02-19T04:46:02.960Z,99.90
2023-02-19T04:48:32.415Z,99.90
2023-02-19T04:50:59.448Z,99.90
2023-02-19T04:53:26.511Z,99.90
2023-02-19T04:55:53.610Z,99.90
2023-02-19T04:58:21.753Z,99.90
2023-02-19T05:00:53.056Z,99.90
2023-02-19T05:03:20.140Z,99.90
2023-02-19T05:05:47.056Z,99.90
2023-02-19T05:08:14.455Z,99.90
2023-02-19T05:10:41.404Z,99.90
2023-02-19T05:13:08.305Z,99.90
2023-02-19T05:15:35.682Z,99.90
2023-02-19T05:18:02.891Z,99.90
2023-02-19T05:20:29.948Z,99.90
2023-02-19T05:22:57.296Z,99.90
2023-02-19T05:25:24.328Z,99.90
2023-02-19T05:28:11.327Z,99.90
2023-02-19T05:30:38.220Z,99.90
2023-02-19T05:33:05.136Z,99.90
2023-02-19T05:35:32.172Z,99.90
2023-02-19T05:37:59.081Z,99.90
2023-02-19T05:40:25.989Z,99.90
2023-02-19T05:42:52.982Z,99.90
2023-02-19T05:45:19.855Z,99.90
2023-02-19T05:47:46.939Z,99.90
2023-02-19T05:50:13.883Z,99.90
2023-02-19T05:52:40.760Z,99.90
2023-02-19T05:55:08.240Z,99.90
2023-02-19T05:57:43.607Z,99.90
2023-02-19T06:00:21.560Z,99.90
2023-02-19T06:02:48.523Z,99.90
2023-02-19T06:05:15.458Z,99.90
2023-02-19T06:07:43.076Z,99.90
2023-02-19T06:10:13.346Z,99.90
2023-02-19T06:12:40.250Z,99.90
2023-02-19T06:15:07.669Z,99.90
2023-02-19T06:17:35.007Z,99.90
2023-02-19T06:20:02.374Z,99.90
2023-02-19T06:22:29.552Z,99.90
2023-02-19T06:24:56.581Z,99.90
2023-02-19T06:27:23.551Z,99.90
2023-02-19T06:29:50.572Z,99.90
2023-02-19T06:32:18.154Z,99.90
2023-02-19T06:34:45.297Z,99.90
2023-02-19T06:37:12.219Z,99.90
2023-02-19T06:39:39.252Z,99.90
2023-02-19T06:42:06.158Z,99.90
2023-02-19T06:44:33.149Z,99.90
2023-02-19T06:47:00.458Z,99.90
2023-02-19T06:49:27.613Z,99.90
2023-02-19T06:51:54.507Z,99.90
2023-02-19T06:54:21.538Z,99.90
2023-02-19T06:56:48.436Z,99.90
2023-02-19T06:59:19.407Z,99.90
2023-02-19T07:01:47.035Z,99.90
2023-02-19T07:04:14.587Z,99.90
2023-02-19T07:06:41.948Z,99.90
2023-02-19T07:09:10.099Z,99.90
2023-02-19T07:11:40.416Z,99.90
2023-02-19T07:14:15.187Z,99.90
2023-02-19T07:16:42.752Z,99.90
2023-02-19T07:19:12.094Z,99.90
2023-02-19T07:21:40.464Z,99.90
2023-02-19T07:24:08.316Z,99.90
2023-02-19T07:26:36.183Z,99.90
2023-02-19T07:29:03.943Z,99.90
2023-02-19T07:31:30.898Z,99.90
2023-02-19T07:33:58.324Z,99.90
2023-02-19T07:36:26.166Z,99.90
2023-02-19T07:39:00.396Z,99.90
2023-02-19T07:41:28.440Z,99.90
2023-02-19T07:43:55.445Z,99.90
2023-02-19T07:46:23.878Z,99.90
2023-02-19T07:48:51.031Z,99.90
2023-02-19T07:51:21.275Z,99.90
2023-02-19T07:53:50.756Z,99.90
2023-02-19T07:56:19.710Z,99.90
2023-02-19T07:58:47.008Z,99.90
2023-02-19T08:01:44.263Z,99.90
2023-02-19T08:04:14.511Z,99.90
2023-02-19T08:06:42.721Z,99.90
2023-02-19T08:09:10.175Z,99.90
2023-02-19T08:11:56.062Z,99.90
2023-02-19T08:14:27.681Z,99.90
2023-02-19T08:16:55.691Z,99.90
2023-02-19T08:19:23.189Z,99.90
2023-02-19T08:21:53.762Z,99.90
2023-02-19T08:24:20.887Z,99.90
2023-02-19T08:26:47.890Z,99.90
2023-02-19T08:29:15.018Z,99.90
2023-02-19T08:31:42.169Z,99.90
2023-02-19T08:34:09.110Z,99.90
2023-02-19T08:36:36.051Z,99.90
2023-02-19T08:39:03.053Z,99.70
2023-02-19T08:41:30.179Z,99.90
2023-02-19T08:43:57.094Z,99.90
2023-02-19T08:46:24.275Z,97.00
2023-02-19T08:48:51.518Z,97.60
2023-02-19T08:51:18.477Z,96.80
2023-02-19T08:54:26.012Z,96.80
2023-02-19T08:57:04.070Z,97.00
2023-02-19T08:59:37.923Z,95.80
2023-02-19T09:02:18.038Z,95.50
2023-02-19T09:04:46.777Z,95.40
2023-02-19T09:07:49.798Z,96.10
2023-02-19T09:10:17.493Z,95.50
2023-02-19T09:13:00.086Z,95.00
2023-02-19T09:15:31.847Z,96.10
2023-02-19T09:17:59.878Z,96.60
2023-02-19T09:20:34.327Z,94.00
2023-02-19T09:23:15.374Z,93.90
2023-02-19T09:25:44.348Z,95.40
2023-02-19T09:28:11.290Z,96.10
2023-02-19T09:30:40.257Z,94.50
2023-02-19T09:33:07.498Z,92.60
2023-02-19T09:35:43.531Z,93.70
2023-02-19T09:38:12.999Z,93.70
2023-02-19T09:40:53.639Z,93.50
2023-02-19T09:43:35.299Z,92.30
2023-02-19T09:46:27.032Z,93.10
2023-02-19T09:49:25.741Z,90.30
2023-02-19T09:56:01.476Z,90.30
2023-02-19T09:59:01.245Z,90.20
2023-02-19T10:02:00.171Z,91.00
2023-02-19T10:04:28.494Z,87.30
2023-02-19T10:07:15.758Z,87.30
2023-02-19T10:10:19.468Z,83.10
2023-02-19T10:12:54.058Z,82.80
2023-02-19T10:15:42.392Z,81.80
2023-02-19T10:18:11.188Z,82.40
2023-02-19T10:20:40.359Z,83.20
2023-02-19T10:23:14.430Z,76.70
2023-02-19T10:28:39.412Z,74.60
2023-02-19T10:31:24.922Z,76.10
2023-02-19T10:34:02.887Z,76.40
2023-02-19T10:37:13.515Z,76.90
2023-02-19T10:40:03.151Z,74.10
2023-02-19T10:43:02.247Z,71.10
2023-02-19T10:46:51.104Z,69.60
2023-02-19T10:50:27.260Z,68.00
2023-02-19T10:53:53.180Z,66.50
2023-02-19T10:56:48.673Z,67.40
2023-02-19T10:59:29.602Z,68.70
2023-02-19T11:02:33.214Z,65.80
2023-02-19T11:08:56.281Z,64.40
2023-02-19T11:12:12.724Z,64.60
2023-02-19T11:14:48.812Z,65.80
2023-02-19T11:17:38.441Z,66.10
2023-02-19T11:24:22.902Z,64.20
2023-02-19T11:27:34.213Z,63.90
2023-02-19T11:30:44.582Z,62.50
2023-02-19T11:34:03.936Z,63.60
2023-02-19T11:36:36.413Z,60.30
2023-02-19T11:39:19.311Z,59.70
2023-02-19T11:42:33.299Z,61.10
2023-02-19T11:53:40.247Z,63.70
2023-02-19T11:56:35.575Z,62.60
2023-02-19T12:00:13.745Z,62.80
2023-02-19T12:11:41.740Z,59.20
2023-02-19T12:16:04.519Z,56.40
2023-02-19T12:19:55.047Z,56.30
2023-02-19T12:23:15.429Z,55.50
2023-02-19T12:26:36.403Z,55.00
2023-02-19T12:30:00.246Z,55.50
2023-02-19T12:34:22.745Z,53.10
2023-02-19T12:47:14.966Z,57.90
2023-02-19T12:55:29.240Z,59.50
2023-02-19T12:59:20.194Z,58.70
2023-02-19T13:02:36.781Z,59.30
2023-02-19T13:05:47.824Z,58.40
2023-02-19T13:08:42.104Z,57.50
2023-02-19T13:11:46.187Z,54.20
2023-02-19T13:14:45.065Z,52.60
2023-02-19T13:17:33.922Z,54.20
2023-02-19T13:20:42.135Z,55.20
2023-02-19T13:23:47.271Z,56.40
2023-02-19T13:26:32.672Z,55.70
2023-02-19T13:29:34.943Z,54.80
2023-02-19T13:32:52.613Z,53.50
2023-02-19T13:36:04.286Z,51.80
2023-02-19T13:38:34.365Z,52.70
2023-02-19T13:41:04.792Z,53.60
2023-02-19T13:43:39.541Z,54.40
2023-02-19T13:46:19.271Z,55.90
2023-02-19T13:48:46.615Z,56.70
2023-02-19T13:51:19.025Z,57.20
2023-02-19T13:53:46.638Z,56.80
2023-02-19T13:56:34.627Z,56.70
2023-02-19T13:59:45.340Z,56.70
2023-02-19T14:02:35.503Z,56.60
2023-02-19T14:05:11.169Z,56.20
2023-02-19T14:08:04.781Z,53.40
2023-02-19T14:11:02.762Z,54.20
2023-02-19T14:13:51.083Z,54.40
2023-02-19T14:16:51.545Z,55.40
2023-02-19T14:19:56.642Z,56.30
2023-02-19T14:22:49.334Z,57.20
2023-02-19T14:25:30.912Z,57.50
2023-02-19T14:28:33.008Z,57.70
2023-02-19T14:31:33.981Z,58.10
2023-02-19T14:34:25.138Z,57.60
2023-02-19T14:37:06.776Z,57.70
2023-02-19T14:39:38.902Z,56.50
2023-02-19T14:42:22.470Z,56.10
2023-02-19T14:45:07.888Z,55.90
2023-02-19T14:47:37.969Z,56.10
2023-02-19T14:50:20.369Z,56.00
2023-02-19T14:53:00.734Z,56.00
2023-02-19T14:55:36.281Z,55.90
2023-02-19T14:58:18.584Z,56.30
2023-02-19T15:00:45.785Z,56.20
2023-02-19T15:03:35.755Z,56.50
2023-02-19T15:06:18.754Z,55.50
2023-02-19T15:08:57.034Z,55.50
2023-02-19T15:11:33.306Z,53.70
2023-02-19T15:14:07.121Z,53.00
2023-02-19T15:16:40.542Z,53.10
2023-02-19T15:19:16.446Z,53.30
2023-02-19T15:21:50.297Z,54.40
2023-02-19T15:24:19.606Z,54.10
2023-02-19T15:26:55.525Z,54.40
2023-02-19T15:29:28.199Z,55.10
2023-02-19T15:32:00.526Z,54.60
2023-02-19T15:34:34.984Z,54.60
2023-02-19T15:37:09.570Z,55.00
2023-02-19T15:39:48.350Z,55.30
2023-02-19T15:42:30.267Z,55.30
2023-02-19T15:45:40.747Z,54.90
2023-02-19T15:48:19.225Z,55.80
2023-02-19T15:50:57.848Z,55.10
2023-02-19T15:53:31.961Z,55.10
2023-02-19T15:56:14.981Z,55.60
2023-02-19T15:59:13.620Z,55.60
2023-02-19T16:01:42.388Z,55.10
2023-02-19T16:04:17.679Z,55.60
2023-02-19T16:07:06.670Z,55.70
2023-02-19T16:09:41.066Z,56.00
2023-02-19T16:12:24.872Z,56.30
2023-02-19T16:14:51.917Z,56.50
2023-02-19T16:17:27.750Z,56.70
2023-02-19T16:20:02.231Z,56.90
2023-02-19T16:22:41.387Z,57.20
2023-02-19T16:25:26.868Z,57.30
2023-02-19T16:27:57.077Z,57.60
2023-02-19T16:30:33.839Z,57.60
2023-02-19T16:33:36.022Z,57.70
2023-02-19T16:36:43.435Z,58.10
2023-02-19T16:39:21.273Z,58.20
2023-02-19T16:41:51.168Z,58.60
2023-02-19T16:44:24.182Z,58.90
2023-02-19T16:47:05.076Z,59.10
2023-02-19T16:49:32.728Z,59.00
2023-02-19T16:52:04.252Z,58.80
2023-02-19T16:54:31.663Z,59.40
2023-02-19T16:57:01.444Z,59.50
2023-02-19T16:59:28.345Z,59.90
2023-02-19T17:01:55.279Z,60.10
2023-02-19T17:04:22.275Z,60.20
2023-02-19T17:06:49.212Z,60.30
2023-02-19T17:09:16.314Z,60.60
2023-02-19T17:11:43.181Z,60.60
2023-02-19T17:14:10.230Z,61.00
2023-02-19T17:16:40.648Z,60.90
2023-02-19T17:19:20.034Z,60.60
2023-02-19T17:21:47.617Z,61.10
2023-02-19T17:24:15.370Z,61.00
2023-02-19T17:26:42.789Z,61.50
2023-02-19T17:29:15.413Z,61.80
2023-02-19T17:31:45.136Z,62.30
2023-02-19T17:34:12.932Z,62.30
2023-02-19T17:36:40.863Z,62.80
2023-02-19T17:39:15.559Z,62.50
2023-02-19T17:41:45.202Z,62.60
2023-02-19T17:44:15.414Z,63.60
2023-02-19T17:46:43.810Z,63.60
2023-02-19T17:49:13.172Z,63.60
2023-02-19T17:51:40.116Z,66.40
2023-02-19T17:54:09.758Z,64.00
2023-02-19T17:56:36.972Z,65.00
2023-02-19T17:59:04.056Z,64.10
2023-02-19T18:01:31.304Z,64.80
2023-02-19T18:03:58.877Z,64.70
2023-02-19T18:06:25.818Z,64.70
2023-02-19T18:08:53.874Z,64.80
2023-02-19T18:11:24.161Z,65.10
2023-02-19T18:13:52.770Z,65.30
2023-02-19T18:16:22.220Z,65.40
2023-02-19T18:18:50.267Z,65.80
2023-02-19T18:21:17.281Z,66.00
2023-02-19T18:23:45.961Z,65.70
2023-02-19T18:26:13.856Z,66.20
2023-02-19T18:28:40.883Z,65.80
2023-02-19T18:31:08.152Z,66.00
2023-02-19T18:33:36.386Z,66.20
2023-02-19T18:36:09.459Z,66.10
2023-02-19T18:38:36.607Z,67.70
2023-02-19T18:41:11.891Z,67.90
2023-02-19T18:43:44.267Z,67.90
2023-02-19T18:46:14.815Z,67.80
2023-02-19T18:48:42.404Z,67.60
2023-02-19T18:51:11.630Z,68.00
2023-02-19T18:53:38.967Z,68.40
2023-02-19T18:56:08.958Z,68.50
2023-02-19T18:58:36.619Z,68.50
2023-02-19T19:01:04.148Z,68.90
2023-02-19T19:03:31.937Z,69.30
2023-02-19T19:06:01.618Z,69.30
2023-02-19T19:08:30.595Z,69.40
2023-02-19T19:11:02.630Z,69.80
2023-02-19T19:13:29.766Z,69.50
2023-02-19T19:15:56.819Z,69.40
2023-02-19T19:18:26.774Z,69.70
2023-02-19T19:21:02.156Z,69.90
2023-02-19T19:23:29.269Z,69.90
2023-02-19T19:25:58.950Z,69.90
2023-02-19T19:28:26.361Z,70.10
2023-02-19T19:30:56.174Z,70.10
2023-02-19T19:33:23.610Z,70.20
2023-02-19T19:35:53.705Z,69.90
2023-02-19T19:38:24.912Z,70.30
2023-02-19T19:40:51.926Z,70.00
2023-02-19T19:43:21.648Z,70.70
2023-02-19T19:45:50.054Z,70.20
2023-02-19T19:48:17.154Z,71.40
2023-02-19T19:50:44.306Z,70.90
2023-02-19T19:53:11.278Z,70.90
2023-02-19T19:55:38.336Z,71.10
2023-02-19T19:58:05.554Z,71.40
2023-02-19T20:00:32.516Z,71.20
2023-02-19T20:02:59.941Z,70.60
2023-02-19T20:05:29.779Z,71.70
2023-02-19T20:07:56.779Z,71.30
2023-02-19T20:10:26.492Z,71.30
2023-02-19T20:12:53.516Z,71.20
2023-02-19T20:15:25.840Z,71.50
2023-02-19T20:17:52.787Z,71.60
2023-02-19T20:20:21.536Z,71.60
2023-02-19T20:22:51.828Z,72.00
2023-02-19T20:25:24.101Z,72.90
2023-02-19T20:27:54.127Z,73.50
2023-02-19T20:30:24.946Z,73.40
2023-02-19T20:32:53.500Z,73.50
2023-02-19T20:35:21.294Z,73.90
2023-02-19T20:37:49.375Z,74.60
2023-02-19T20:40:18.240Z,74.80
2023-02-19T20:42:45.421Z,74.50
2023-02-19T20:45:14.226Z,74.60
2023-02-19T20:47:41.209Z,75.10
2023-02-19T20:50:09.079Z,75.20
2023-02-19T20:52:36.004Z,75.80
2023-02-19T20:55:03.302Z,76.10
2023-02-19T20:57:30.384Z,76.00
2023-02-19T20:59:57.610Z,77.20
2023-02-19T21:02:29.201Z,76.50
2023-02-19T21:04:58.110Z,77.30
2023-02-19T21:07:25.880Z,77.10
2023-02-19T21:09:53.984Z,76.70
2023-02-19T21:12:22.767Z,77.60
2023-02-19T21:14:49.852Z,78.40
2023-02-19T21:17:16.893Z,78.60
2023-02-19T21:19:44.047Z,78.60
2023-02-19T21:22:10.948Z,78.80
2023-02-19T21:24:37.852Z,79.20
2023-02-19T21:27:04.846Z,78.80
2023-02-19T21:29:31.784Z,80.20
2023-02-19T21:31:59.028Z,79.80
2023-02-19T21:34:30.031Z,79.80
2023-02-19T21:36:57.489Z,81.60
2023-02-19T21:39:27.480Z,81.30
2023-02-19T21:41:54.788Z,81.20
2023-02-19T21:44:21.927Z,81.40
2023-02-19T21:46:49.078Z,82.70
2023-02-19T21:49:17.669Z,83.40
2023-02-19T21:51:47.866Z,83.90
2023-02-19T21:54:25.427Z,83.80
2023-02-19T21:56:56.389Z,84.00
2023-02-19T21:59:26.375Z,83.60
2023-02-19T22:01:53.688Z,82.80
2023-02-19T22:04:24.717Z,83.00
2023-02-19T22:06:56.821Z,83.20
2023-02-19T22:09:24.221Z,83.70
2023-02-19T22:11:51.892Z,83.60
2023-02-19T22:14:19.028Z,82.60
2023-02-19T22:16:46.082Z,83.50
2023-02-19T22:19:13.525Z,82.60
2023-02-19T22:21:44.801Z,82.20
2023-02-19T22:24:21.673Z,83.10
2023-02-19T22:26:50.639Z,83.40
2023-02-19T22:29:18.016Z,83.80
2023-02-19T22:31:45.061Z,85.60
2023-02-19T22:34:13.080Z,86.10
2023-02-19T22:36:40.457Z,85.80
2023-02-19T22:39:27.491Z,86.50
2023-02-19T22:41:54.694Z,86.20
2023-02-19T22:44:22.093Z,87.00
2023-02-19T22:46:56.626Z,86.00
2023-02-19T22:49:26.643Z,87.10
2023-02-19T22:52:08.328Z,86.90
2023-02-19T22:54:36.708Z,87.60
2023-02-19T22:57:04.220Z,89.10
2023-02-19T22:59:31.933Z,89.20
2023-02-19T23:01:58.875Z,89.60
2023-02-19T23:04:27.144Z,90.30
2023-02-19T23:06:54.435Z,91.30
2023-02-19T23:09:29.111Z,90.00
2023-02-19T23:12:11.575Z,90.10
2023-02-19T23:14:38.920Z,89.00
2023-02-19T23:17:06.511Z,90.00
2023-02-19T23:19:33.599Z,89.70
2023-02-19T23:22:00.813Z,90.30
2023-02-19T23:24:27.704Z,89.40
2023-02-19T23:26:55.635Z,88.30
2023-02-19T23:29:27.478Z,89.50
2023-02-19T23:31:55.260Z,89.10
2023-02-19T23:34:24.240Z,90.10
2023-02-19T23:36:56.848Z,90.30
2023-02-19T23:39:23.802Z,89.60
2023-02-19T23:41:56.634Z,89.80
2023-02-19T23:44:25.402Z,88.30
2023-02-19T23:46:52.965Z,89.80
2023-02-19T23:49:21.268Z,89.30
2023-02-19T23:51:48.333Z,91.70
2023-02-19T23:54:15.763Z,92.10
2023-02-19T23:56:43.173Z,92.10
2023-02-19T23:59:10.325Z,91.20
